Pagina principale
METAR-TAF:

METAR-TAF

Aeroporti :

De Aar, Sudafrica

latitudine: 30-40-29S, longitudine: 23-59-57E, altezza: 1286 m

Osservazione

Il bollettino è stato emesso 21 ore e 57 minuti fa, alle 08:26 UTC
Vento 5 kt da est/sud-est
Temperature 11°C
Umidità 37%
Pressione 1023 hPa
Visibilità 10 km o più
nessuna nube inferiore a 1500 m e nessun cumulonembo

METAR: FADY 260826Z 12005KT CAVOK 11/M03 Q1023

Ora: 08:23 (06:23 UTC)


TAF: mancante

Osservazioni e previsioni meteorologiche di più di 4000 aeroporti (messaggi METAR e TAF).

Le stazioni disponibili sono rappresentate dai dischi gialli e rossi sulla carta.

Puntare il mouse per vedere il nome della stazione.

Clicca sopra per visualizzare le osservazioni e previsioni meteorologiche.

Per cambiare la mappa : fare clic sui pulsanti verdi con una croce nera per ingrandire, il pulsante verde con un trattino per diminuire, o sulla freccia verde per le mappe adiacenti.


METAR-TAF: